createdAt,value
2019-01-03T00:00:17.627Z,5.10
2019-01-03T00:02:50.111Z,6.27
2019-01-03T00:05:32.551Z,4.53
2019-01-03T00:08:02.356Z,11.70
2019-01-03T00:10:37.994Z,7.60
2019-01-03T00:13:10.808Z,3.73
2019-01-03T00:15:52.859Z,4.53
2019-01-03T00:18:28.618Z,5.90
2019-01-03T00:21:15.035Z,5.97
2019-01-03T00:24:00.103Z,5.33
2019-01-03T00:26:46.705Z,6.47
2019-01-03T00:29:16.516Z,5.77
2019-01-03T00:31:55.372Z,6.50
2019-01-03T00:34:25.167Z,5.97
2019-01-03T00:37:11.339Z,4.77
2019-01-03T00:39:43.910Z,5.20
2019-01-03T00:42:16.410Z,5.57
2019-01-03T00:44:58.561Z,4.97
2019-01-03T00:47:37.680Z,7.50
2019-01-03T00:50:07.981Z,5.33
2019-01-03T00:52:37.804Z,4.00
2019-01-03T00:55:13.602Z,6.50
2019-01-03T00:57:58.457Z,2.87
2019-01-03T01:00:28.390Z,2.97
2019-01-03T01:03:14.483Z,3.30
2019-01-03T01:05:59.787Z,4.10
2019-01-03T01:08:32.166Z,4.77
2019-01-03T01:11:02.026Z,3.80
2019-01-03T01:13:47.393Z,2.57
2019-01-03T01:16:22.716Z,6.20
2019-01-03T01:18:55.553Z,6.60
2019-01-03T01:21:37.369Z,3.10
2019-01-03T01:24:24.074Z,6.30
2019-01-03T01:27:02.831Z,3.87
2019-01-03T01:29:49.257Z,9.30
2019-01-03T01:32:34.646Z,4.67
2019-01-03T01:35:04.451Z,5.27
2019-01-03T01:37:34.261Z,8.27
2019-01-03T01:40:10.090Z,5.73
2019-01-03T01:42:45.871Z,5.53
2019-01-03T01:45:32.151Z,4.80
2019-01-03T01:48:13.724Z,5.17
2019-01-03T01:50:58.693Z,4.97
2019-01-03T01:53:34.111Z,6.97
2019-01-03T01:56:07.341Z,3.87
2019-01-03T01:58:46.211Z,4.03
2019-01-03T02:01:22.144Z,4.23
2019-01-03T02:03:55.471Z,5.77
2019-01-03T02:06:28.572Z,2.67
2019-01-03T02:09:14.748Z,6.10
2019-01-03T02:11:50.560Z,5.73
2019-01-03T02:14:20.329Z,3.17
2019-01-03T02:16:50.467Z,5.27
2019-01-03T02:19:32.577Z,8.63
2019-01-03T02:22:14.454Z,3.93
2019-01-03T02:24:44.572Z,4.23
2019-01-03T02:27:17.433Z,3.70
2019-01-03T02:29:53.539Z,4.57
2019-01-03T02:32:23.344Z,4.70
2019-01-03T02:34:56.048Z,2.63
2019-01-03T02:37:42.124Z,5.87
2019-01-03T02:40:28.732Z,2.00
2019-01-03T02:43:10.837Z,6.53
2019-01-03T02:45:46.708Z,4.63
2019-01-03T02:48:19.532Z,3.43
2019-01-03T02:50:49.332Z,4.83
2019-01-03T02:53:35.823Z,3.33
2019-01-03T02:56:05.792Z,5.83
2019-01-03T02:58:41.628Z,5.40
2019-01-03T03:01:11.500Z,6.60
2019-01-03T03:03:56.329Z,1.87
2019-01-03T03:06:44.294Z,4.67
2019-01-03T03:09:14.082Z,5.47
2019-01-03T03:11:58.905Z,3.00
2019-01-03T03:14:34.901Z,3.63
2019-01-03T03:17:05.380Z,3.37
2019-01-03T03:19:35.518Z,3.27
2019-01-03T03:22:08.496Z,4.63
2019-01-03T03:24:38.303Z,3.63
2019-01-03T03:27:08.092Z,4.53
2019-01-03T03:29:40.638Z,2.83
2019-01-03T03:32:16.555Z,6.13
2019-01-03T03:34:52.512Z,4.57
2019-01-03T03:37:25.109Z,4.57
2019-01-03T03:39:57.700Z,3.50
2019-01-03T03:42:33.866Z,4.97
2019-01-03T03:45:09.736Z,2.97
2019-01-03T03:47:49.087Z,3.47
2019-01-03T03:50:18.894Z,3.83
2019-01-03T03:53:05.288Z,2.40
2019-01-03T03:55:52.044Z,4.10
2019-01-03T03:58:38.277Z,5.63
2019-01-03T04:01:20.126Z,5.00
2019-01-03T04:03:50.242Z,2.97
2019-01-03T04:06:36.625Z,7.03
2019-01-03T04:09:09.963Z,3.10
2019-01-03T04:11:39.730Z,4.40
2019-01-03T04:14:24.311Z,5.07
2019-01-03T04:17:03.110Z,6.23
2019-01-03T04:19:41.913Z,4.73
2019-01-03T04:22:28.320Z,5.13
2019-01-03T04:25:04.362Z,4.47
2019-01-03T04:27:34.153Z,5.63
2019-01-03T04:30:21.970Z,2.27
2019-01-03T04:32:52.113Z,6.40
2019-01-03T04:35:34.246Z,4.27
2019-01-03T04:38:22.732Z,5.80
2019-01-03T04:40:58.822Z,3.53
2019-01-03T04:43:35.111Z,4.40
2019-01-03T04:46:05.239Z,3.03
2019-01-03T04:48:53.604Z,3.70
2019-01-03T04:51:35.945Z,3.90
2019-01-03T04:54:08.544Z,3.90
2019-01-03T04:56:53.484Z,2.67
2019-01-03T04:59:35.569Z,2.90
2019-01-03T05:02:22.292Z,8.43
2019-01-03T05:04:54.884Z,6.23
2019-01-03T05:07:39.793Z,4.40
2019-01-03T05:10:13.027Z,3.60
2019-01-03T05:12:46.114Z,4.97
2019-01-03T05:15:27.957Z,7.37
2019-01-03T05:18:03.850Z,7.57
2019-01-03T05:20:42.779Z,3.80
2019-01-03T05:23:15.343Z,4.60
2019-01-03T05:25:48.417Z,4.57
2019-01-03T05:28:34.869Z,4.50
2019-01-03T05:31:07.356Z,3.57
2019-01-03T05:33:46.096Z,6.97
2019-01-03T05:36:16.522Z,3.93
2019-01-03T05:38:46.289Z,5.87
2019-01-03T05:41:28.049Z,8.73
2019-01-03T05:44:04.240Z,2.63
2019-01-03T05:46:34.430Z,4.07
2019-01-03T05:49:20.856Z,4.07
2019-01-03T05:51:56.383Z,5.30
2019-01-03T05:54:32.548Z,6.57
2019-01-03T05:57:11.398Z,5.63
2019-01-03T05:59:57.591Z,4.87
2019-01-03T06:02:27.451Z,3.97
2019-01-03T06:05:15.467Z,3.70
2019-01-03T06:07:54.161Z,3.00
2019-01-03T06:10:32.963Z,1.93
2019-01-03T06:13:18.475Z,4.33
2019-01-03T06:16:00.586Z,4.10
2019-01-03T06:18:42.527Z,4.97
2019-01-03T06:21:21.955Z,4.33
2019-01-03T06:23:51.746Z,4.17
2019-01-03T06:26:24.366Z,5.47
2019-01-03T06:29:10.504Z,4.43
2019-01-03T06:31:57.142Z,6.10
2019-01-03T06:34:27.264Z,6.00
2019-01-03T06:37:00.087Z,4.13
2019-01-03T06:39:36.162Z,5.50
2019-01-03T06:42:05.973Z,4.63
2019-01-03T06:44:52.473Z,3.07
2019-01-03T06:47:22.277Z,7.63
2019-01-03T06:49:52.057Z,3.87
2019-01-03T06:52:33.690Z,4.13
2019-01-03T06:55:04.059Z,5.27
2019-01-03T06:57:50.369Z,4.87
2019-01-03T07:00:20.155Z,6.90
2019-01-03T07:02:53.416Z,3.93
2019-01-03T07:05:23.277Z,6.87
2019-01-03T07:08:02.315Z,3.13
2019-01-03T07:10:34.933Z,4.60
2019-01-03T07:13:11.049Z,4.10
2019-01-03T07:16:00.432Z,3.83
2019-01-03T07:18:36.462Z,4.80
2019-01-03T07:21:27.372Z,4.07
2019-01-03T07:24:05.355Z,5.23
2019-01-03T07:26:37.611Z,5.53
2019-01-03T07:29:07.385Z,3.60
2019-01-03T07:31:43.262Z,6.60
2019-01-03T07:34:29.709Z,6.63
2019-01-03T07:37:02.477Z,4.87
2019-01-03T07:39:38.477Z,5.63
2019-01-03T07:42:08.270Z,3.20
2019-01-03T07:44:41.143Z,7.30
2019-01-03T07:47:22.902Z,3.40
2019-01-03T07:49:55.791Z,7.23
2019-01-03T07:52:42.453Z,5.30
2019-01-03T07:55:12.597Z,7.37
2019-01-03T07:57:45.504Z,6.37
2019-01-03T08:00:18.110Z,12.83
2019-01-03T08:03:00.421Z,5.83
2019-01-03T08:05:33.333Z,5.10
2019-01-03T08:08:15.438Z,4.90
2019-01-03T08:10:54.468Z,4.93
2019-01-03T08:13:24.585Z,7.63
2019-01-03T08:15:57.455Z,6.70
2019-01-03T08:18:30.766Z,9.83
2019-01-03T08:21:09.422Z,11.47
2019-01-03T08:23:39.537Z,7.50
2019-01-03T08:26:21.850Z,8.70
2019-01-03T08:29:08.188Z,9.10
2019-01-03T08:31:41.100Z,4.30
2019-01-03T08:34:19.976Z,8.40
2019-01-03T08:37:06.120Z,8.00
2019-01-03T08:39:44.780Z,7.60
2019-01-03T08:42:14.631Z,6.97
2019-01-03T08:44:50.436Z,12.87
2019-01-03T08:47:37.045Z,12.50
2019-01-03T08:50:22.529Z,21.43
2019-01-03T08:53:01.065Z,38.43
2019-01-03T08:55:33.901Z,32.97
2019-01-03T08:58:20.481Z,27.13
2019-01-03T09:01:06.896Z,26.17
2019-01-03T09:03:43.015Z,25.23
2019-01-03T09:06:19.125Z,19.87
2019-01-03T09:09:05.456Z,18.23
2019-01-03T09:11:53.270Z,19.30
2019-01-03T09:14:28.659Z,15.30
2019-01-03T09:17:04.463Z,11.50
2019-01-03T09:19:50.812Z,12.37
2019-01-03T09:22:21.068Z,17.13
2019-01-03T09:24:53.862Z,12.73
2019-01-03T09:27:23.666Z,10.83
2019-01-03T09:30:06.096Z,8.97
2019-01-03T09:32:42.274Z,8.37
2019-01-03T09:35:28.454Z,10.60
2019-01-03T09:38:01.353Z,9.33
2019-01-03T09:40:34.507Z,10.03
2019-01-03T09:43:13.418Z,9.60
2019-01-03T09:45:44.414Z,11.30
2019-01-03T09:48:11.833Z,9.67
2019-01-03T09:50:39.995Z,10.77
2019-01-03T09:53:08.125Z,9.60
2019-01-03T09:55:36.304Z,6.80
2019-01-03T09:58:04.536Z,10.53
2019-01-03T10:00:32.763Z,9.03
2019-01-03T10:03:01.516Z,7.77
2019-01-03T10:05:30.048Z,7.10
2019-01-03T10:07:58.554Z,6.70
2019-01-03T10:10:26.677Z,8.77
2019-01-03T10:12:55.226Z,12.93
2019-01-03T10:15:23.700Z,9.87
2019-01-03T10:17:52.169Z,11.33
2019-01-03T10:20:20.689Z,11.90
2019-01-03T10:22:48.898Z,11.93
2019-01-03T10:25:17.027Z,11.43
2019-01-03T10:27:45.486Z,9.57
2019-01-03T10:30:13.773Z,10.63
2019-01-03T10:32:42.268Z,9.83
2019-01-03T10:35:10.417Z,10.60
2019-01-03T10:37:38.607Z,9.63
2019-01-03T10:40:07.101Z,9.90
2019-01-03T10:42:35.265Z,11.77
2019-01-03T10:45:03.486Z,8.27
2019-01-03T10:47:32.172Z,11.93
2019-01-03T10:50:00.641Z,13.43
2019-01-03T10:52:29.116Z,55.03
2019-01-03T10:54:57.286Z,15.47
2019-01-03T10:57:25.463Z,17.93
2019-01-03T10:59:53.671Z,16.30
2019-01-03T11:02:21.844Z,27.17
2019-01-03T11:04:49.990Z,22.70
2019-01-03T11:07:18.164Z,17.80
2019-01-03T11:09:46.317Z,22.37
2019-01-03T11:12:14.499Z,27.67
2019-01-03T11:14:42.989Z,27.80
2019-01-03T11:17:11.491Z,29.10
2019-01-03T11:19:39.632Z,21.53
2019-01-03T11:22:07.809Z,21.33
2019-01-03T11:24:36.003Z,19.23
2019-01-03T11:27:04.292Z,19.73
2019-01-03T11:29:32.808Z,15.47
2019-01-03T11:32:01.291Z,15.40
2019-01-03T11:34:29.877Z,13.20
2019-01-03T11:36:58.020Z,10.57
2019-01-03T11:39:26.219Z,11.87
2019-01-03T11:41:54.368Z,13.33
2019-01-03T11:44:22.855Z,10.43
2019-01-03T11:46:51.376Z,12.17
2019-01-03T11:49:19.977Z,10.90
2019-01-03T11:51:48.145Z,9.83
2019-01-03T11:54:16.270Z,8.67
2019-01-03T11:56:44.576Z,10.47
2019-01-03T11:59:12.769Z,11.10
2019-01-03T12:01:41.245Z,12.97
2019-01-03T12:04:09.765Z,10.73
2019-01-03T12:06:38.055Z,11.00
2019-01-03T12:09:06.384Z,9.77
2019-01-03T12:11:34.507Z,12.27
2019-01-03T12:14:02.668Z,7.63
2019-01-03T12:16:30.811Z,10.80
2019-01-03T12:18:58.972Z,10.07
2019-01-03T12:21:27.198Z,9.60
2019-01-03T12:23:55.359Z,7.80
2019-01-03T12:26:23.854Z,12.53
2019-01-03T12:28:52.122Z,16.67
2019-01-03T12:31:20.687Z,63.03
2019-01-03T12:33:49.602Z,18.00
2019-01-03T12:36:18.120Z,17.27
2019-01-03T12:38:46.551Z,20.67
2019-01-03T12:41:15.070Z,25.83
2019-01-03T12:43:43.219Z,33.90
2019-01-03T12:46:11.423Z,58.20
2019-01-03T12:48:45.369Z,45.30
2019-01-03T12:51:09.745Z,33.70
2019-01-03T12:53:37.966Z,29.90
2019-01-03T12:56:06.510Z,36.93
2019-01-03T12:58:34.978Z,43.63
2019-01-03T13:01:03.193Z,42.13
2019-01-03T13:03:33.557Z,33.87
2019-01-03T13:06:01.711Z,39.63
2019-01-03T13:08:29.899Z,26.73
2019-01-03T13:10:58.033Z,24.47
2019-01-03T13:13:26.239Z,19.60
2019-01-03T13:15:54.414Z,18.57
2019-01-03T13:18:22.597Z,15.03
2019-01-03T13:20:50.741Z,65.93
2019-01-03T13:23:19.499Z,130.00
2019-01-03T13:25:47.657Z,51.63
2019-01-03T13:28:15.913Z,75.27
2019-01-03T13:30:44.051Z,100.13
2019-01-03T13:33:12.277Z,79.10
2019-01-03T13:35:40.906Z,61.63
2019-01-03T13:38:09.503Z,37.03
2019-01-03T13:40:38.017Z,32.10
2019-01-03T13:43:06.133Z,25.67
2019-01-03T13:45:34.271Z,16.97
2019-01-03T13:48:02.450Z,13.47
2019-01-03T13:50:30.620Z,13.87
2019-01-03T13:52:58.763Z,11.57
2019-01-03T13:55:27.199Z,13.57
2019-01-03T13:57:55.329Z,13.23
2019-01-03T14:00:23.918Z,9.73
2019-01-03T14:02:52.060Z,13.30
2019-01-03T14:05:20.218Z,10.43
2019-01-03T14:07:48.411Z,9.47
2019-01-03T14:10:16.558Z,8.03
2019-01-03T14:12:45.326Z,8.07
2019-01-03T14:15:13.749Z,13.57
2019-01-03T14:17:42.257Z,12.27
2019-01-03T14:20:11.374Z,8.37
2019-01-03T14:22:39.543Z,11.83
2019-01-03T14:25:07.758Z,6.63
2019-01-03T14:27:35.933Z,7.87
2019-01-03T14:30:05.930Z,10.47
2019-01-03T14:32:34.058Z,12.37
2019-01-03T14:35:02.259Z,10.50
2019-01-03T14:37:30.790Z,10.67
2019-01-03T14:39:59.538Z,14.97
2019-01-03T14:42:27.704Z,22.43
2019-01-03T14:44:55.841Z,16.30
2019-01-03T14:47:24.019Z,23.13
2019-01-03T14:49:52.155Z,20.73
2019-01-03T14:52:20.636Z,23.33
2019-01-03T14:54:49.157Z,29.47
2019-01-03T14:57:17.662Z,22.67
2019-01-03T14:59:45.851Z,23.90
2019-01-03T15:02:14.028Z,27.00
2019-01-03T15:04:42.176Z,35.47
2019-01-03T15:07:10.349Z,37.67
2019-01-03T15:09:38.500Z,52.90
2019-01-03T15:12:07.046Z,65.67
2019-01-03T15:14:35.520Z,101.13
2019-01-03T15:17:04.049Z,83.73
2019-01-03T15:19:32.220Z,71.30
2019-01-03T15:22:00.364Z,38.63
2019-01-03T15:24:28.553Z,36.77
2019-01-03T15:26:56.695Z,31.17
2019-01-03T15:29:24.902Z,25.77
2019-01-03T15:31:53.027Z,24.10
2019-01-03T15:34:21.223Z,21.13
2019-01-03T15:36:49.694Z,15.73
2019-01-03T15:39:18.173Z,19.67
2019-01-03T15:41:46.381Z,18.67
2019-01-03T15:44:14.517Z,14.77
2019-01-03T15:46:42.665Z,13.00
2019-01-03T15:49:10.827Z,14.43
2019-01-03T15:51:38.997Z,10.07
2019-01-03T15:54:07.135Z,22.67
2019-01-03T15:56:35.300Z,9.70
2019-01-03T15:59:03.788Z,15.00
2019-01-03T16:01:31.971Z,12.13
2019-01-03T16:04:00.106Z,10.90
2019-01-03T16:06:28.244Z,11.33
2019-01-03T16:08:56.435Z,18.30
2019-01-03T16:11:24.568Z,19.03
2019-01-03T16:13:53.046Z,14.37
2019-01-03T16:16:21.201Z,18.60
2019-01-03T16:18:49.366Z,19.60
2019-01-03T16:21:17.845Z,23.33
2019-01-03T16:23:46.006Z,20.40
2019-01-03T16:26:14.495Z,17.63
2019-01-03T16:28:43.029Z,16.93
2019-01-03T16:31:11.166Z,16.23
2019-01-03T16:33:39.645Z,12.43
2019-01-03T16:36:07.858Z,16.53
2019-01-03T16:38:35.994Z,18.47
2019-01-03T16:41:04.136Z,20.20
2019-01-03T16:43:32.306Z,15.13
2019-01-03T16:46:00.519Z,13.77
2019-01-03T16:48:28.637Z,15.73
2019-01-03T16:50:57.455Z,17.17
2019-01-03T16:53:25.713Z,19.00
2019-01-03T16:55:53.836Z,18.17
2019-01-03T16:58:22.026Z,15.97
2019-01-03T17:00:50.242Z,15.53
2019-01-03T17:03:18.436Z,14.30
2019-01-03T17:05:46.578Z,17.13
2019-01-03T17:08:14.721Z,14.90
2019-01-03T17:10:42.909Z,13.70
2019-01-03T17:13:11.343Z,15.07
2019-01-03T17:15:40.230Z,15.90
2019-01-03T17:18:08.365Z,14.17
2019-01-03T17:20:36.886Z,15.93
2019-01-03T17:23:05.038Z,16.50
2019-01-03T17:25:33.204Z,14.07
2019-01-03T17:28:01.340Z,17.47
2019-01-03T17:30:29.808Z,15.00
2019-01-03T17:32:57.973Z,18.43
2019-01-03T17:35:26.426Z,16.63
2019-01-03T17:37:54.859Z,17.87
2019-01-03T17:40:23.337Z,17.87
2019-01-03T17:42:51.591Z,16.13
2019-01-03T17:45:20.066Z,17.87
2019-01-03T17:47:48.551Z,16.63
2019-01-03T17:50:16.730Z,21.00
2019-01-03T17:52:44.904Z,18.97
2019-01-03T17:55:13.115Z,20.87
2019-01-03T17:57:41.321Z,17.70
2019-01-03T18:00:11.323Z,21.10
2019-01-03T18:02:39.456Z,17.43
2019-01-03T18:05:07.710Z,26.40
2019-01-03T18:07:36.221Z,19.50
2019-01-03T18:10:08.282Z,23.70
2019-01-03T18:12:36.756Z,27.13
2019-01-03T18:15:06.951Z,27.17
2019-01-03T18:17:35.718Z,22.10
2019-01-03T18:20:05.453Z,31.43
2019-01-03T18:22:33.574Z,27.97
2019-01-03T18:25:03.370Z,33.07
2019-01-03T18:27:31.504Z,29.27
2019-01-03T18:29:59.655Z,25.47
2019-01-03T18:32:27.809Z,28.23
2019-01-03T18:34:55.958Z,26.93
2019-01-03T18:37:24.111Z,24.67
2019-01-03T18:39:52.278Z,26.17
2019-01-03T18:42:20.446Z,24.40
2019-01-03T18:44:48.590Z,27.63
2019-01-03T18:47:16.725Z,25.80
2019-01-03T18:49:45.245Z,24.43
2019-01-03T18:52:13.394Z,28.27
2019-01-03T18:54:42.203Z,27.23
2019-01-03T18:57:10.380Z,24.73
2019-01-03T18:59:38.526Z,24.97
2019-01-03T19:02:06.684Z,27.90
2019-01-03T19:04:34.907Z,22.37
2019-01-03T19:07:03.058Z,23.03
2019-01-03T19:09:31.578Z,25.33
2019-01-03T19:12:00.016Z,24.40
2019-01-03T19:14:28.157Z,25.97
2019-01-03T19:16:56.296Z,24.87
2019-01-03T19:19:24.452Z,24.77
2019-01-03T19:21:52.591Z,24.03
2019-01-03T19:24:21.419Z,26.90
2019-01-03T19:26:49.877Z,21.60
2019-01-03T19:29:18.050Z,24.90
2019-01-03T19:31:46.250Z,18.63
2019-01-03T19:34:14.479Z,19.43
2019-01-03T19:36:42.616Z,25.20
2019-01-03T19:39:10.800Z,23.37
2019-01-03T19:41:39.020Z,25.07
2019-01-03T19:44:07.480Z,23.80
2019-01-03T19:46:35.923Z,20.53
2019-01-03T19:49:04.397Z,27.47
2019-01-03T19:51:32.892Z,26.67
2019-01-03T19:54:01.039Z,24.90
2019-01-03T19:56:29.222Z,25.10
2019-01-03T19:58:57.354Z,26.60
2019-01-03T20:01:25.848Z,23.63
2019-01-03T20:03:53.993Z,26.70
2019-01-03T20:06:22.142Z,29.13
2019-01-03T20:08:50.291Z,26.80
2019-01-03T20:11:18.785Z,26.60
2019-01-03T20:13:46.938Z,24.90
2019-01-03T20:16:15.098Z,26.23
2019-01-03T20:18:43.283Z,25.23
2019-01-03T20:21:11.415Z,26.07
2019-01-03T20:23:39.541Z,25.17
2019-01-03T20:26:07.714Z,29.23
2019-01-03T20:28:35.847Z,21.83
2019-01-03T20:31:04.051Z,24.47
2019-01-03T20:33:32.229Z,27.77
2019-01-03T20:36:00.368Z,28.07
2019-01-03T20:38:28.504Z,27.63
2019-01-03T20:40:56.654Z,29.03
2019-01-03T20:43:24.827Z,30.70
2019-01-03T20:45:53.297Z,32.50
2019-01-03T20:48:21.774Z,31.83
2019-01-03T20:50:49.999Z,30.87
2019-01-03T20:53:18.858Z,33.33
2019-01-03T20:55:47.046Z,35.17
2019-01-03T20:58:15.518Z,35.83
2019-01-03T21:00:43.634Z,30.60
2019-01-03T21:03:11.805Z,36.00
2019-01-03T21:05:39.970Z,56.93
2019-01-03T21:08:08.102Z,53.70
2019-01-03T21:10:36.225Z,80.80
2019-01-03T21:13:04.460Z,82.87
2019-01-03T21:15:32.963Z,84.33
2019-01-03T21:18:01.109Z,52.40
2019-01-03T21:20:29.266Z,55.70
2019-01-03T21:22:57.437Z,48.60
2019-01-03T21:25:25.833Z,56.67
2019-01-03T21:27:54.066Z,46.47
2019-01-03T21:30:22.478Z,41.53
2019-01-03T21:32:50.721Z,48.53
2019-01-03T21:35:19.326Z,48.97
2019-01-03T21:37:47.506Z,47.10
2019-01-03T21:40:15.635Z,36.07
2019-01-03T21:42:44.097Z,52.93
2019-01-03T21:45:12.807Z,68.33
2019-01-03T21:47:40.949Z,85.17
2019-01-03T21:50:10.184Z,69.27
2019-01-03T21:52:38.752Z,61.10
2019-01-03T21:55:06.965Z,59.83
2019-01-03T21:57:35.172Z,53.93
2019-01-03T22:00:05.276Z,50.33
2019-01-03T22:02:33.819Z,49.07
2019-01-03T22:05:02.073Z,38.77
2019-01-03T22:07:30.288Z,50.43
2019-01-03T22:09:58.767Z,52.37
2019-01-03T22:12:27.288Z,52.97
2019-01-03T22:14:55.862Z,46.77
2019-01-03T22:17:24.320Z,48.37
2019-01-03T22:19:52.499Z,44.43
2019-01-03T22:22:20.643Z,45.77
2019-01-03T22:24:49.458Z,50.50
2019-01-03T22:27:17.605Z,42.93
2019-01-03T22:29:45.780Z,48.67
2019-01-03T22:32:14.001Z,39.87
2019-01-03T22:34:42.148Z,42.97
2019-01-03T22:37:10.274Z,44.97
2019-01-03T22:39:38.452Z,40.73
2019-01-03T22:42:06.597Z,38.90
2019-01-03T22:44:34.732Z,39.47
2019-01-03T22:47:02.896Z,38.17
2019-01-03T22:49:31.045Z,39.93
2019-01-03T22:51:59.209Z,44.90
2019-01-03T22:54:27.689Z,43.07
2019-01-03T22:56:56.169Z,41.23
2019-01-03T22:59:24.318Z,42.07
2019-01-03T23:01:52.815Z,41.43
2019-01-03T23:04:20.952Z,40.30
2019-01-03T23:06:49.102Z,43.27
2019-01-03T23:09:17.248Z,39.70
2019-01-03T23:11:45.428Z,43.63
2019-01-03T23:14:13.578Z,47.97
2019-01-03T23:16:42.073Z,44.53
2019-01-03T23:19:10.390Z,47.47
2019-01-03T23:21:38.580Z,41.40
2019-01-03T23:24:07.213Z,52.93
2019-01-03T23:26:35.348Z,45.60
2019-01-03T23:29:03.483Z,44.00
2019-01-03T23:31:31.647Z,47.30
2019-01-03T23:33:59.827Z,49.13
2019-01-03T23:36:28.037Z,44.73
2019-01-03T23:38:56.167Z,40.50
2019-01-03T23:41:24.589Z,42.30
2019-01-03T23:43:52.743Z,40.97
2019-01-03T23:46:21.247Z,43.23
2019-01-03T23:48:49.735Z,41.37
2019-01-03T23:51:17.890Z,39.47
2019-01-03T23:53:46.024Z,38.07
2019-01-03T23:56:14.202Z,37.27
2019-01-03T23:58:42.355Z,38.37
